Louisiana — WLOZ — position and weather

sailwx.info

Track history (hours):
 
Tides and Currents Weather Stations Pressure Air Temp Water Temp Dewpoint Dewpoint Depression Visibility Wind Speed Wind Dir Waves Ship Positions

Louisiana

Owner: Crowley Petroleum Services, Inc., Jacksonville, FL. More information available from US FCC via Universal Licensing System and Coast Guard Vessel Documentation Center.

Last reported at 2018-Feb-22 22:30 UTC. Time now 2018-Feb-22 22:52 UTC.
Position N 25°52' W 079°55'.

Length 183 m; draft 11.4 m.

Type: Tanker. MMSI: 338110000.

Date/timePositionNaut miles runAvg speedWind from/ knotsBaromVisibWave heightAir tempDewpointWater temp
2018-Feb-22 22:30N 25°52' W 079°55'816.9
2018-Feb-22 22:00N 25°44' W 079°56'816.8
2018-Feb-22 21:30N 25°35' W 079°57'816.8
2018-Feb-22 21:00N 25°27' W 079°57'916.3
2018-Feb-22 20:29N 25°19' W 079°59'  
2018-Feb-15 04:24N 25°30' W 080°01'4 9.1
2018-Feb-15 03:58N 25°34' W 080°00'4 9.0
2018-Feb-15 03:30N 25°38' W 080°00'4 8.9
2018-Feb-15 03:00N 25°42' W 079°60'4 8.8
2018-Feb-15 02:30N 25°47' W 079°60'4 8.8
2018-Feb-15 02:00N 25°51' W 079°60'4 8.6
2018-Feb-15 01:30N 25°55' W 079°60'4 8.8
2018-Feb-15 01:00N 25°60' W 079°60'4 8.6
2018-Feb-15 00:31N 26°04' W 079°59'4 8.5
2018-Feb-15 00:00N 26°08' W 079°59'4 8.6
2018-Feb-14 23:30N 26°12' W 079°59'4 8.7
2018-Feb-14 23:00N 26°17' W 079°58'4 8.5
2018-Feb-14 22:30N 26°21' W 079°58'4 8.4
2018-Feb-14 22:00N 26°25' W 079°58'4 8.5
2018-Feb-14 21:29N 26°30' W 079°58'4 8.8
2018-Feb-14 20:59N 26°34' W 079°58'5 9.5
2018-Feb-14 20:27N 26°39' W 079°58'12 8.6
2018-Feb-14 19:06N 26°51' W 079°57'1 9.0
2018-Feb-14 19:00N 26°52' W 079°57'4 8.9
2018-Feb-14 18:30N 26°56' W 079°57'4 9.0
2018-Feb-14 18:00N 27°01' W 079°57'5 9.6
2018-Feb-14 17:28N 27°06' W 079°57'  
Track history (hours):
 
Tides and Currents Weather Stations Pressure Air Temp Water Temp Dewpoint Dewpoint Depression Visibility Wind Speed Wind Dir Waves Ship Positions

Louisiana

Owner: Crowley Petroleum Services, Inc., Jacksonville, FL. More information available from US FCC via Universal Licensing System and Coast Guard Vessel Documentation Center.

Last reported at 2018-Feb-22 22:30 UTC. Time now 2018-Feb-22 22:52 UTC.
Position N 25°52' W 079°55'.

Length 183 m; draft 11.4 m.

Type: Tanker. MMSI: 338110000.

Date/timePositionNaut miles runAvg speedWind from/ knotsBaromVisibWave heightAir tempDewpointWater temp
2018-Feb-22 22:30N 25°52' W 079°55'816.9
2018-Feb-22 22:00N 25°44' W 079°56'816.8
2018-Feb-22 21:30N 25°35' W 079°57'816.8
2018-Feb-22 21:00N 25°27' W 079°57'916.3
2018-Feb-22 20:29N 25°19' W 079°59'  
2018-Feb-15 04:24N 25°30' W 080°01'4 9.1
2018-Feb-15 03:58N 25°34' W 080°00'4 9.0
2018-Feb-15 03:30N 25°38' W 080°00'4 8.9
2018-Feb-15 03:00N 25°42' W 079°60'4 8.8
2018-Feb-15 02:30N 25°47' W 079°60'4 8.8
2018-Feb-15 02:00N 25°51' W 079°60'4 8.6
2018-Feb-15 01:30N 25°55' W 079°60'4 8.8
2018-Feb-15 01:00N 25°60' W 079°60'4 8.6
2018-Feb-15 00:31N 26°04' W 079°59'4 8.5
2018-Feb-15 00:00N 26°08' W 079°59'4 8.6
2018-Feb-14 23:30N 26°12' W 079°59'4 8.7
2018-Feb-14 23:00N 26°17' W 079°58'4 8.5
2018-Feb-14 22:30N 26°21' W 079°58'4 8.4
2018-Feb-14 22:00N 26°25' W 079°58'4 8.5
2018-Feb-14 21:29N 26°30' W 079°58'4 8.8
2018-Feb-14 20:59N 26°34' W 079°58'5 9.5
2018-Feb-14 20:27N 26°39' W 079°58'12 8.6
2018-Feb-14 19:06N 26°51' W 079°57'1 9.0
2018-Feb-14 19:00N 26°52' W 079°57'4 8.9
2018-Feb-14 18:30N 26°56' W 079°57'4 9.0
2018-Feb-14 18:00N 27°01' W 079°57'5 9.6
2018-Feb-14 17:28N 27°06' W 079°57'  

Dump ship's entire track history